sensor_id;sensor_type;location;lat;lon;timestamp;pressure;altitude;pressure_sealevel;temperature;humidity
55604;BME280;41468;48.838;9.330;2022-07-30T00:01:21;98309.69;;;18.50;84.19
55604;BME280;41468;48.838;9.330;2022-07-30T00:03:51;98310.72;;;18.40;84.65
55604;BME280;41468;48.838;9.330;2022-07-30T00:06:21;98315.59;;;18.52;83.56
55604;BME280;41468;48.838;9.330;2022-07-30T00:08:51;98318.09;;;18.47;83.88
55604;BME280;41468;48.838;9.330;2022-07-30T00:11:23;98311.41;;;18.44;83.84
55604;BME280;41468;48.838;9.330;2022-07-30T00:13:54;98312.78;;;18.36;84.50
55604;BME280;41468;48.838;9.330;2022-07-30T00:16:24;98311.88;;;18.42;84.10
55604;BME280;41468;48.838;9.330;2022-07-30T00:18:53;98307.59;;;18.38;83.70
55604;BME280;41468;48.838;9.330;2022-07-30T00:21:23;98307.38;;;18.29;84.27
55604;BME280;41468;48.838;9.330;2022-07-30T00:24:05;98310.16;;;18.09;86.17
55604;BME280;41468;48.838;9.330;2022-07-30T00:26:37;98307.47;;;18.05;86.67
55604;BME280;41468;48.838;9.330;2022-07-30T00:29:07;98318.84;;;18.07;86.71
55604;BME280;41468;48.838;9.330;2022-07-30T00:31:36;98320.88;;;17.83;88.18
55604;BME280;41468;48.838;9.330;2022-07-30T00:34:06;98319.22;;;17.89;87.28
55604;BME280;41468;48.838;9.330;2022-07-30T00:36:37;98319.91;;;17.93;87.29
55604;BME280;41468;48.838;9.330;2022-07-30T00:39:07;98320.34;;;18.12;85.50
55604;BME280;41468;48.838;9.330;2022-07-30T00:41:59;98319.78;;;18.01;87.39
55604;BME280;41468;48.838;9.330;2022-07-30T00:44:29;98323.63;;;18.07;86.14
55604;BME280;41468;48.838;9.330;2022-07-30T00:46:59;98330.50;;;17.98;87.15
55604;BME280;41468;48.838;9.330;2022-07-30T00:49:29;98332.31;;;17.85;87.88
55604;BME280;41468;48.838;9.330;2022-07-30T00:51:59;98336.09;;;17.71;89.31
55604;BME280;41468;48.838;9.330;2022-07-30T00:54:28;98339.06;;;17.84;88.07
55604;BME280;41468;48.838;9.330;2022-07-30T00:57:01;98345.38;;;17.85;87.67
55604;BME280;41468;48.838;9.330;2022-07-30T00:59:31;98341.22;;;17.73;90.19
55604;BME280;41468;48.838;9.330;2022-07-30T01:02:01;98345.44;;;17.81;89.41
55604;BME280;41468;48.838;9.330;2022-07-30T01:04:30;98338.81;;;17.75;89.74
55604;BME280;41468;48.838;9.330;2022-07-30T01:07:00;98346.13;;;17.85;88.50
55604;BME280;41468;48.838;9.330;2022-07-30T01:09:30;98353.28;;;17.83;89.16
55604;BME280;41468;48.838;9.330;2022-07-30T01:12:03;98354.06;;;17.83;88.39
55604;BME280;41468;48.838;9.330;2022-07-30T01:14:34;98355.66;;;17.84;88.66
55604;BME280;41468;48.838;9.330;2022-07-30T01:17:04;98355.28;;;17.82;88.88
55604;BME280;41468;48.838;9.330;2022-07-30T01:19:36;98348.53;;;17.83;88.87
55604;BME280;41468;48.838;9.330;2022-07-30T01:22:34;98355.66;;;17.84;88.47
55604;BME280;41468;48.838;9.330;2022-07-30T01:25:15;98351.13;;;17.70;90.26
55604;BME280;41468;48.838;9.330;2022-07-30T01:27:51;98351.06;;;17.74;89.34
55604;BME280;41468;48.838;9.330;2022-07-30T01:30:26;98356.91;;;17.80;88.75
55604;BME280;41468;48.838;9.330;2022-07-30T01:32:57;98341.16;;;17.76;89.19
55604;BME280;41468;48.838;9.330;2022-07-30T01:35:29;98350.34;;;17.70;89.29
55604;BME280;41468;48.838;9.330;2022-07-30T01:38:03;98356.22;;;17.72;89.25
55604;BME280;41468;48.838;9.330;2022-07-30T01:40:35;98349.69;;;17.62;89.44
55604;BME280;41468;48.838;9.330;2022-07-30T01:43:09;98352.19;;;17.53;89.18
55604;BME280;41468;48.838;9.330;2022-07-30T01:45:40;98354.41;;;17.62;87.61
55604;BME280;41468;48.838;9.330;2022-07-30T01:48:11;98356.00;;;17.63;87.01
55604;BME280;41468;48.838;9.330;2022-07-30T01:50:44;98360.19;;;17.71;86.26
55604;BME280;41468;48.838;9.330;2022-07-30T01:53:17;98365.72;;;17.71;85.52
55604;BME280;41468;48.838;9.330;2022-07-30T01:55:48;98362.97;;;17.71;85.13
55604;BME280;41468;48.838;9.330;2022-07-30T01:58:25;98365.81;;;17.91;83.36
55604;BME280;41468;48.838;9.330;2022-07-30T02:00:56;98361.06;;;17.91;83.38
55604;BME280;41468;48.838;9.330;2022-07-30T02:03:27;98369.13;;;17.82;84.09
55604;BME280;41468;48.838;9.330;2022-07-30T02:06:00;98362.50;;;18.00;82.04
55604;BME280;41468;48.838;9.330;2022-07-30T02:08:37;98362.84;;;18.02;82.11
55604;BME280;41468;48.838;9.330;2022-07-30T02:11:08;98357.22;;;17.85;83.44
55604;BME280;41468;48.838;9.330;2022-07-30T02:13:46;98356.97;;;17.76;83.82
55604;BME280;41468;48.838;9.330;2022-07-30T02:16:21;98357.44;;;17.71;84.02
55604;BME280;41468;48.838;9.330;2022-07-30T02:18:55;98364.38;;;17.83;83.91
55604;BME280;41468;48.838;9.330;2022-07-30T02:21:36;98356.47;;;17.58;85.56
55604;BME280;41468;48.838;9.330;2022-07-30T02:24:20;98347.22;;;17.68;84.23
55604;BME280;41468;48.838;9.330;2022-07-30T02:26:54;98350.72;;;17.48;85.11
55604;BME280;41468;48.838;9.330;2022-07-30T02:29:29;98349.22;;;17.40;85.61
55604;BME280;41468;48.838;9.330;2022-07-30T02:32:00;98353.47;;;17.48;85.23
55604;BME280;41468;48.838;9.330;2022-07-30T02:34:35;98347.97;;;17.45;85.44
55604;BME280;41468;48.838;9.330;2022-07-30T02:37:07;98354.97;;;17.26;86.74
55604;BME280;41468;48.838;9.330;2022-07-30T02:39:41;98356.28;;;17.45;84.57
55604;BME280;41468;48.838;9.330;2022-07-30T02:42:15;98358.22;;;17.21;85.88
55604;BME280;41468;48.838;9.330;2022-07-30T02:44:51;98362.97;;;17.20;85.69
55604;BME280;41468;48.838;9.330;2022-07-30T02:47:22;98364.72;;;17.34;84.88
55604;BME280;41468;48.838;9.330;2022-07-30T02:49:54;98376.38;;;17.22;85.06
55604;BME280;41468;48.838;9.330;2022-07-30T02:52:26;98381.00;;;17.28;84.83
55604;BME280;41468;48.838;9.330;2022-07-30T02:54:58;98379.28;;;17.11;85.91
55604;BME280;41468;48.838;9.330;2022-07-30T02:57:30;98384.50;;;17.05;85.93
55604;BME280;41468;48.838;9.330;2022-07-30T03:00:12;98373.53;;;16.98;85.85
55604;BME280;41468;48.838;9.330;2022-07-30T03:02:43;98383.84;;;16.94;86.58
55604;BME280;41468;48.838;9.330;2022-07-30T03:05:14;98387.28;;;17.05;85.49
55604;BME280;41468;48.838;9.330;2022-07-30T03:07:45;98384.59;;;16.98;85.57
55604;BME280;41468;48.838;9.330;2022-07-30T03:10:16;98387.13;;;16.85;86.57
55604;BME280;41468;48.838;9.330;2022-07-30T03:12:48;98391.72;;;16.61;88.48
55604;BME280;41468;48.838;9.330;2022-07-30T03:15:21;98383.53;;;16.54;89.00
55604;BME280;41468;48.838;9.330;2022-07-30T03:17:53;98388.56;;;16.63;88.04
55604;BME280;41468;48.838;9.330;2022-07-30T03:20:26;98388.78;;;16.79;87.38
55604;BME280;41468;48.838;9.330;2022-07-30T03:22:58;98391.94;;;16.78;87.10
55604;BME280;41468;48.838;9.330;2022-07-30T03:25:30;98408.50;;;16.78;86.60
55604;BME280;41468;48.838;9.330;2022-07-30T03:28:02;98390.31;;;16.84;86.44
55604;BME280;41468;48.838;9.330;2022-07-30T03:30:36;98398.94;;;16.86;86.05
55604;BME280;41468;48.838;9.330;2022-07-30T03:33:06;98406.19;;;16.73;87.26
55604;BME280;41468;48.838;9.330;2022-07-30T03:35:40;98409.00;;;16.69;86.29
55604;BME280;41468;48.838;9.330;2022-07-30T03:38:11;98407.91;;;16.59;87.52
55604;BME280;41468;48.838;9.330;2022-07-30T03:40:42;98410.41;;;16.50;88.17
55604;BME280;41468;48.838;9.330;2022-07-30T03:43:13;98410.78;;;16.52;86.60
55604;BME280;41468;48.838;9.330;2022-07-30T03:46:02;98415.06;;;16.57;86.08
55604;BME280;41468;48.838;9.330;2022-07-30T03:48:34;98416.22;;;16.59;85.25
55604;BME280;41468;48.838;9.330;2022-07-30T03:51:06;98418.25;;;16.55;85.43
55604;BME280;41468;48.838;9.330;2022-07-30T03:53:37;98429.22;;;16.62;84.49
55604;BME280;41468;48.838;9.330;2022-07-30T03:56:08;98421.06;;;16.48;85.88
55604;BME280;41468;48.838;9.330;2022-07-30T03:58:39;98429.09;;;16.35;86.45
55604;BME280;41468;48.838;9.330;2022-07-30T04:01:12;98425.16;;;16.36;85.96
55604;BME280;41468;48.838;9.330;2022-07-30T04:03:42;98430.09;;;16.14;87.72
55604;BME280;41468;48.838;9.330;2022-07-30T04:06:11;98433.53;;;16.26;86.63
55604;BME280;41468;48.838;9.330;2022-07-30T04:08:41;98434.66;;;16.32;86.01
55604;BME280;41468;48.838;9.330;2022-07-30T04:11:11;98433.44;;;16.33;85.62
55604;BME280;41468;48.838;9.330;2022-07-30T04:13:41;98430.84;;;16.18;87.02
55604;BME280;41468;48.838;9.330;2022-07-30T04:16:17;98439.16;;;16.11;87.04
55604;BME280;41468;48.838;9.330;2022-07-30T04:19:11;98433.81;;;15.93;89.04
55604;BME280;41468;48.838;9.330;2022-07-30T04:21:45;98437.44;;;15.83;89.20
55604;BME280;41468;48.838;9.330;2022-07-30T04:24:17;98447.66;;;15.86;89.01
55604;BME280;41468;48.838;9.330;2022-07-30T04:26:49;98453.88;;;16.01;87.91
55604;BME280;41468;48.838;9.330;2022-07-30T04:29:20;98452.00;;;15.87;89.63
55604;BME280;41468;48.838;9.330;2022-07-30T04:31:53;98459.47;;;15.90;89.39
55604;BME280;41468;48.838;9.330;2022-07-30T04:34:23;98455.13;;;15.93;88.91
55604;BME280;41468;48.838;9.330;2022-07-30T04:36:53;98456.59;;;16.05;87.81
55604;BME280;41468;48.838;9.330;2022-07-30T04:39:23;98463.38;;;15.93;89.02
55604;BME280;41468;48.838;9.330;2022-07-30T04:41:53;98470.47;;;15.94;89.01
55604;BME280;41468;48.838;9.330;2022-07-30T04:44:23;98467.75;;;15.90;88.94
55604;BME280;41468;48.838;9.330;2022-07-30T04:46:55;98466.50;;;15.95;88.27
55604;BME280;41468;48.838;9.330;2022-07-30T04:49:26;98476.78;;;15.91;88.99
55604;BME280;41468;48.838;9.330;2022-07-30T04:51:57;98470.78;;;16.03;88.12
55604;BME280;41468;48.838;9.330;2022-07-30T04:54:34;98470.03;;;15.99;87.76
55604;BME280;41468;48.838;9.330;2022-07-30T04:57:06;98473.09;;;16.08;87.30
55604;BME280;41468;48.838;9.330;2022-07-30T04:59:38;98477.88;;;16.00;88.17
55604;BME280;41468;48.838;9.330;2022-07-30T05:02:10;98480.13;;;16.16;86.58
55604;BME280;41468;48.838;9.330;2022-07-30T05:04:41;98480.06;;;16.23;86.21
55604;BME280;41468;48.838;9.330;2022-07-30T05:07:12;98486.31;;;16.31;85.48
55604;BME280;41468;48.838;9.330;2022-07-30T05:09:48;98489.53;;;16.22;86.29
55604;BME280;41468;48.838;9.330;2022-07-30T05:12:17;98490.28;;;16.27;86.91
55604;BME280;41468;48.838;9.330;2022-07-30T05:14:47;98486.31;;;16.31;87.01
55604;BME280;41468;48.838;9.330;2022-07-30T05:17:20;98494.03;;;16.47;85.41
55604;BME280;41468;48.838;9.330;2022-07-30T05:19:50;98492.34;;;16.57;85.56
55604;BME280;41468;48.838;9.330;2022-07-30T05:22:19;98493.38;;;17.08;83.96
55604;BME280;41468;48.838;9.330;2022-07-30T05:24:51;98494.06;;;17.19;83.97
55604;BME280;41468;48.838;9.330;2022-07-30T05:27:21;98498.69;;;18.11;79.57
55604;BME280;41468;48.838;9.330;2022-07-30T05:29:50;98499.00;;;19.96;71.26
55604;BME280;41468;48.838;9.330;2022-07-30T05:32:23;98493.03;;;20.76;67.49
55604;BME280;41468;48.838;9.330;2022-07-30T05:34:53;98502.28;;;21.82;64.00
55604;BME280;41468;48.838;9.330;2022-07-30T05:37:25;98496.53;;;22.85;60.05
55604;BME280;41468;48.838;9.330;2022-07-30T05:39:54;98496.44;;;24.13;55.78
55604;BME280;41468;48.838;9.330;2022-07-30T05:42:29;98491.63;;;25.42;51.61
55604;BME280;41468;48.838;9.330;2022-07-30T05:44:58;98496.28;;;26.30;48.00
55604;BME280;41468;48.838;9.330;2022-07-30T05:47:31;98500.44;;;27.13;45.14
55604;BME280;41468;48.838;9.330;2022-07-30T05:50:01;98498.81;;;27.36;44.62
55604;BME280;41468;48.838;9.330;2022-07-30T05:52:31;98502.31;;;27.60;43.72
55604;BME280;41468;48.838;9.330;2022-07-30T05:55:01;98499.13;;;28.03;43.47
55604;BME280;41468;48.838;9.330;2022-07-30T05:57:33;98495.81;;;27.84;43.54
55604;BME280;41468;48.838;9.330;2022-07-30T06:00:04;98504.19;;;27.49;43.79
55604;BME280;41468;48.838;9.330;2022-07-30T06:02:39;98512.13;;;26.82;44.89
55604;BME280;41468;48.838;9.330;2022-07-30T06:05:09;98498.81;;;25.53;48.10
55604;BME280;41468;48.838;9.330;2022-07-30T06:07:38;98507.53;;;24.63;49.54
55604;BME280;41468;48.838;9.330;2022-07-30T06:10:09;98513.44;;;24.46;50.74
55604;BME280;41468;48.838;9.330;2022-07-30T06:12:38;98506.63;;;24.56;51.18
55604;BME280;41468;48.838;9.330;2022-07-30T06:15:09;98521.22;;;24.51;50.92
55604;BME280;41468;48.838;9.330;2022-07-30T06:17:46;98518.88;;;23.91;52.03
55604;BME280;41468;48.838;9.330;2022-07-30T06:20:27;98521.75;;;23.03;53.85
55604;BME280;41468;48.838;9.330;2022-07-30T06:22:56;98513.72;;;22.35;55.42
55604;BME280;41468;48.838;9.330;2022-07-30T06:25:26;98517.44;;;21.81;58.74
55604;BME280;41468;48.838;9.330;2022-07-30T06:27:56;98519.88;;;21.66;58.26
55604;BME280;41468;48.838;9.330;2022-07-30T06:30:46;98523.53;;;21.63;58.51
55604;BME280;41468;48.838;9.330;2022-07-30T06:33:18;98515.16;;;21.50;58.46
55604;BME280;41468;48.838;9.330;2022-07-30T06:35:48;98523.31;;;21.58;58.99
55604;BME280;41468;48.838;9.330;2022-07-30T06:38:18;98512.63;;;21.69;58.73
55604;BME280;41468;48.838;9.330;2022-07-30T06:40:48;98518.97;;;21.95;58.42
55604;BME280;41468;48.838;9.330;2022-07-30T06:43:18;98524.69;;;22.04;57.50
55604;BME280;41468;48.838;9.330;2022-07-30T06:45:47;98520.41;;;22.38;57.05
55604;BME280;41468;48.838;9.330;2022-07-30T06:48:20;98518.03;;;22.49;55.53
55604;BME280;41468;48.838;9.330;2022-07-30T06:50:49;98525.44;;;22.78;55.67
55604;BME280;41468;48.838;9.330;2022-07-30T06:53:19;98523.38;;;23.13;55.98
55604;BME280;41468;48.838;9.330;2022-07-30T06:55:49;98514.03;;;23.29;53.97
55604;BME280;41468;48.838;9.330;2022-07-30T06:58:24;98524.03;;;23.61;53.22
55604;BME280;41468;48.838;9.330;2022-07-30T07:00:54;98525.38;;;23.57;52.73
55604;BME280;41468;48.838;9.330;2022-07-30T07:03:26;98535.88;;;23.75;52.31
55604;BME280;41468;48.838;9.330;2022-07-30T07:06:05;98530.00;;;23.82;52.79
55604;BME280;41468;48.838;9.330;2022-07-30T07:08:35;98532.19;;;23.87;53.38
55604;BME280;41468;48.838;9.330;2022-07-30T07:11:05;98529.75;;;23.98;50.65
55604;BME280;41468;48.838;9.330;2022-07-30T07:13:35;98531.81;;;24.07;50.79
55604;BME280;41468;48.838;9.330;2022-07-30T07:16:05;98541.84;;;24.35;50.64
55604;BME280;41468;48.838;9.330;2022-07-30T07:18:37;98539.06;;;24.54;48.02
55604;BME280;41468;48.838;9.330;2022-07-30T07:21:07;98539.56;;;24.62;47.24
55604;BME280;41468;48.838;9.330;2022-07-30T07:23:36;98536.44;;;24.60;47.75
55604;BME280;41468;48.838;9.330;2022-07-30T07:26:09;98543.31;;;24.86;47.32
55604;BME280;41468;48.838;9.330;2022-07-30T07:28:39;98535.84;;;24.92;48.00
55604;BME280;41468;48.838;9.330;2022-07-30T07:31:09;98545.97;;;25.17;47.04
55604;BME280;41468;48.838;9.330;2022-07-30T07:34:02;98550.13;;;25.22;46.31
55604;BME280;41468;48.838;9.330;2022-07-30T07:36:32;98536.78;;;25.26;46.32
55604;BME280;41468;48.838;9.330;2022-07-30T07:39:02;98535.53;;;25.36;46.00
55604;BME280;41468;48.838;9.330;2022-07-30T07:41:38;98543.44;;;25.47;46.63
55604;BME280;41468;48.838;9.330;2022-07-30T07:44:15;98540.03;;;25.52;45.59
55604;BME280;41468;48.838;9.330;2022-07-30T07:46:44;98539.53;;;25.44;46.04
55604;BME280;41468;48.838;9.330;2022-07-30T07:49:17;98547.59;;;25.70;44.50
55604;BME280;41468;48.838;9.330;2022-07-30T07:51:47;98543.06;;;25.73;45.30
55604;BME280;41468;48.838;9.330;2022-07-30T07:54:17;98546.63;;;25.73;45.13
55604;BME280;41468;48.838;9.330;2022-07-30T07:56:49;98540.50;;;25.93;44.77
55604;BME280;41468;48.838;9.330;2022-07-30T07:59:22;98538.00;;;25.95;44.09
55604;BME280;41468;48.838;9.330;2022-07-30T08:02:06;98544.91;;;25.85;44.59
55604;BME280;41468;48.838;9.330;2022-07-30T08:04:38;98544.22;;;25.99;43.58
55604;BME280;41468;48.838;9.330;2022-07-30T08:07:08;98538.28;;;26.06;44.36
55604;BME280;41468;48.838;9.330;2022-07-30T08:09:38;98548.06;;;26.11;43.84
55604;BME280;41468;48.838;9.330;2022-07-30T08:12:10;98538.22;;;26.16;43.68
55604;BME280;41468;48.838;9.330;2022-07-30T08:14:40;98537.78;;;26.08;43.14
55604;BME280;41468;48.838;9.330;2022-07-30T08:17:10;98544.22;;;25.99;43.65
55604;BME280;41468;48.838;9.330;2022-07-30T08:19:42;98547.75;;;26.09;43.11
55604;BME280;41468;48.838;9.330;2022-07-30T08:22:12;98537.78;;;26.17;43.00
55604;BME280;41468;48.838;9.330;2022-07-30T08:24:42;98538.66;;;26.23;43.59
55604;BME280;41468;48.838;9.330;2022-07-30T08:27:12;98538.47;;;26.27;44.16
55604;BME280;41468;48.838;9.330;2022-07-30T08:29:41;98533.72;;;26.42;43.37
55604;BME280;41468;48.838;9.330;2022-07-30T08:32:11;98538.50;;;26.51;43.65
55604;BME280;41468;48.838;9.330;2022-07-30T08:34:44;98531.53;;;26.13;43.50
55604;BME280;41468;48.838;9.330;2022-07-30T08:37:14;98533.56;;;26.22;43.36
55604;BME280;41468;48.838;9.330;2022-07-30T08:39:43;98538.72;;;26.05;43.01
55604;BME280;41468;48.838;9.330;2022-07-30T08:42:13;98543.19;;;26.21;44.15
55604;BME280;41468;48.838;9.330;2022-07-30T08:44:44;98535.69;;;26.27;43.13
55604;BME280;41468;48.838;9.330;2022-07-30T08:47:16;98534.63;;;26.24;42.35
55604;BME280;41468;48.838;9.330;2022-07-30T08:49:49;98541.38;;;26.42;42.72
55604;BME280;41468;48.838;9.330;2022-07-30T08:52:19;98539.44;;;26.48;44.78
55604;BME280;41468;48.838;9.330;2022-07-30T08:54:49;98538.00;;;26.76;42.82
55604;BME280;41468;48.838;9.330;2022-07-30T08:57:19;98546.44;;;27.15;42.28
55604;BME280;41468;48.838;9.330;2022-07-30T08:59:50;98545.31;;;26.83;40.76
55604;BME280;41468;48.838;9.330;2022-07-30T09:02:29;98547.22;;;26.53;41.99
55604;BME280;41468;48.838;9.330;2022-07-30T09:05:02;98544.47;;;26.10;42.20
55604;BME280;41468;48.838;9.330;2022-07-30T09:07:32;98546.94;;;25.75;42.28
55604;BME280;41468;48.838;9.330;2022-07-30T09:10:03;98539.41;;;25.30;43.06
55604;BME280;41468;48.838;9.330;2022-07-30T09:12:40;98549.50;;;25.55;42.19
55604;BME280;41468;48.838;9.330;2022-07-30T09:15:13;98548.28;;;25.98;41.19
55604;BME280;41468;48.838;9.330;2022-07-30T09:17:49;98535.22;;;25.95;42.09
55604;BME280;41468;48.838;9.330;2022-07-30T09:20:23;98539.31;;;25.76;41.98
55604;BME280;41468;48.838;9.330;2022-07-30T09:22:54;98548.84;;;25.51;42.08
55604;BME280;41468;48.838;9.330;2022-07-30T09:25:38;98541.72;;;25.59;41.91
55604;BME280;41468;48.838;9.330;2022-07-30T09:28:10;98545.13;;;25.63;41.69
55604;BME280;41468;48.838;9.330;2022-07-30T09:30:44;98537.31;;;25.76;39.98
55604;BME280;41468;48.838;9.330;2022-07-30T09:33:14;98541.09;;;25.55;41.19
55604;BME280;41468;48.838;9.330;2022-07-30T09:35:54;98538.72;;;25.72;40.95
55604;BME280;41468;48.838;9.330;2022-07-30T09:38:24;98538.16;;;25.92;40.36
55604;BME280;41468;48.838;9.330;2022-07-30T09:40:55;98535.09;;;25.80;40.51
55604;BME280;41468;48.838;9.330;2022-07-30T09:43:42;98545.91;;;25.54;40.13
55604;BME280;41468;48.838;9.330;2022-07-30T09:46:12;98545.72;;;25.67;39.94
55604;BME280;41468;48.838;9.330;2022-07-30T09:48:42;98535.41;;;25.82;40.73
55604;BME280;41468;48.838;9.330;2022-07-30T09:51:15;98544.63;;;26.07;40.93
55604;BME280;41468;48.838;9.330;2022-07-30T09:54:05;98540.19;;;26.34;40.02
55604;BME280;41468;48.838;9.330;2022-07-30T09:56:35;98531.69;;;26.43;39.54
55604;BME280;41468;48.838;9.330;2022-07-30T09:59:26;98535.81;;;26.33;39.34
55604;BME280;41468;48.838;9.330;2022-07-30T10:02:00;98534.13;;;26.26;39.89
55604;BME280;41468;48.838;9.330;2022-07-30T10:04:36;98538.66;;;25.90;39.98
55604;BME280;41468;48.838;9.330;2022-07-30T10:07:16;98536.16;;;25.92;39.25
55604;BME280;41468;48.838;9.330;2022-07-30T10:09:51;98534.25;;;25.98;40.03
55604;BME280;41468;48.838;9.330;2022-07-30T10:12:22;98526.69;;;26.23;40.04
55604;BME280;41468;48.838;9.330;2022-07-30T10:14:55;98526.47;;;26.36;39.54
55604;BME280;41468;48.838;9.330;2022-07-30T10:17:31;98530.56;;;26.25;39.72
55604;BME280;41468;48.838;9.330;2022-07-30T10:20:06;98530.50;;;26.59;39.96
55604;BME280;41468;48.838;9.330;2022-07-30T10:22:41;98536.50;;;26.51;39.01
55604;BME280;41468;48.838;9.330;2022-07-30T10:25:17;98525.00;;;26.64;37.92
55604;BME280;41468;48.838;9.330;2022-07-30T10:27:53;98528.19;;;26.81;36.42
55604;BME280;41468;48.838;9.330;2022-07-30T10:30:24;98532.75;;;26.69;37.81
55604;BME280;41468;48.838;9.330;2022-07-30T10:32:56;98528.53;;;26.74;38.32
55604;BME280;41468;48.838;9.330;2022-07-30T10:35:27;98529.28;;;26.74;37.89
55604;BME280;41468;48.838;9.330;2022-07-30T10:38:08;98523.00;;;26.65;37.96
55604;BME280;41468;48.838;9.330;2022-07-30T10:40:46;98523.56;;;26.69;37.79
55604;BME280;41468;48.838;9.330;2022-07-30T10:43:28;98525.06;;;26.79;37.89
55604;BME280;41468;48.838;9.330;2022-07-30T10:46:08;98525.91;;;27.09;37.18
55604;BME280;41468;48.838;9.330;2022-07-30T10:48:48;98523.03;;;27.18;37.87
55604;BME280;41468;48.838;9.330;2022-07-30T10:51:18;98527.09;;;27.17;37.88
55604;BME280;41468;48.838;9.330;2022-07-30T10:54:02;98527.81;;;26.64;37.27
55604;BME280;41468;48.838;9.330;2022-07-30T10:56:37;98523.00;;;26.89;37.10
55604;BME280;41468;48.838;9.330;2022-07-30T10:59:08;98517.41;;;27.18;36.64
55604;BME280;41468;48.838;9.330;2022-07-30T11:02:07;98515.31;;;27.43;36.05
55604;BME280;41468;48.838;9.330;2022-07-30T11:04:38;98515.84;;;27.77;37.23
55604;BME280;41468;48.838;9.330;2022-07-30T11:07:25;98512.06;;;27.80;36.20
55604;BME280;41468;48.838;9.330;2022-07-30T11:10:00;98509.78;;;27.99;35.99
55604;BME280;41468;48.838;9.330;2022-07-30T11:12:52;98510.25;;;28.27;36.01
55604;BME280;41468;48.838;9.330;2022-07-30T11:15:22;98512.13;;;28.15;34.91
55604;BME280;41468;48.838;9.330;2022-07-30T11:18:04;98515.47;;;27.69;35.46
55604;BME280;41468;48.838;9.330;2022-07-30T11:20:39;98509.78;;;27.99;35.76
55604;BME280;41468;48.838;9.330;2022-07-30T11:23:36;98506.22;;;27.98;36.03
55604;BME280;41468;48.838;9.330;2022-07-30T11:26:09;98510.25;;;28.27;36.34
55604;BME280;41468;48.838;9.330;2022-07-30T11:28:41;98504.75;;;28.38;35.38
55604;BME280;41468;48.838;9.330;2022-07-30T11:31:29;98509.72;;;28.64;35.47
55604;BME280;41468;48.838;9.330;2022-07-30T11:34:26;98496.69;;;28.46;34.45
55604;BME280;41468;48.838;9.330;2022-07-30T11:37:14;98499.44;;;28.61;33.58
55604;BME280;41468;48.838;9.330;2022-07-30T11:40:08;98501.34;;;28.69;34.72
55604;BME280;41468;48.838;9.330;2022-07-30T11:42:41;98498.66;;;28.40;35.35
55604;BME280;41468;48.838;9.330;2022-07-30T11:45:22;98491.31;;;28.27;34.81
55604;BME280;41468;48.838;9.330;2022-07-30T11:47:57;98497.47;;;28.26;34.44
55604;BME280;41468;48.838;9.330;2022-07-30T11:50:30;98502.16;;;27.99;34.13
55604;BME280;41468;48.838;9.330;2022-07-30T11:53:02;98504.06;;;27.73;34.55
55604;BME280;41468;48.838;9.330;2022-07-30T11:55:33;98499.03;;;27.47;34.43
55604;BME280;41468;48.838;9.330;2022-07-30T11:58:08;98493.63;;;27.44;33.55
55604;BME280;41468;48.838;9.330;2022-07-30T12:00:41;98501.63;;;27.66;34.16
55604;BME280;41468;48.838;9.330;2022-07-30T12:03:15;98498.53;;;27.63;34.29
55604;BME280;41468;48.838;9.330;2022-07-30T12:05:45;98493.66;;;27.94;34.23
55604;BME280;41468;48.838;9.330;2022-07-30T12:08:19;98500.53;;;28.08;33.53
55604;BME280;41468;48.838;9.330;2022-07-30T12:11:02;98492.66;;;28.32;33.74
55604;BME280;41468;48.838;9.330;2022-07-30T12:13:34;98485.84;;;28.39;33.76
55604;BME280;41468;48.838;9.330;2022-07-30T12:16:12;98490.50;;;28.83;33.63
55604;BME280;41468;48.838;9.330;2022-07-30T12:18:42;98489.28;;;28.89;33.53
55604;BME280;41468;48.838;9.330;2022-07-30T12:21:13;98487.06;;;28.73;32.22
55604;BME280;41468;48.838;9.330;2022-07-30T12:23:53;98490.97;;;28.81;33.48
55604;BME280;41468;48.838;9.330;2022-07-30T12:26:24;98484.88;;;28.83;33.35
55604;BME280;41468;48.838;9.330;2022-07-30T12:28:59;98480.00;;;28.83;33.07
55604;BME280;41468;48.838;9.330;2022-07-30T12:31:30;98480.63;;;28.93;32.42
55604;BME280;41468;48.838;9.330;2022-07-30T12:34:17;98474.94;;;29.13;32.78
55604;BME280;41468;48.838;9.330;2022-07-30T12:36:47;98464.72;;;29.16;33.17
55604;BME280;41468;48.838;9.330;2022-07-30T12:39:18;98477.50;;;29.17;32.34
55604;BME280;41468;48.838;9.330;2022-07-30T12:41:50;98480.13;;;29.21;33.03
55604;BME280;41468;48.838;9.330;2022-07-30T12:44:38;98476.25;;;29.18;32.80
55604;BME280;41468;48.838;9.330;2022-07-30T12:47:18;98475.25;;;28.95;34.00
55604;BME280;41468;48.838;9.330;2022-07-30T12:49:50;98470.69;;;28.98;32.86
55604;BME280;41468;48.838;9.330;2022-07-30T12:52:24;98474.59;;;28.80;33.87
55604;BME280;41468;48.838;9.330;2022-07-30T12:54:58;98465.75;;;28.92;33.14
55604;BME280;41468;48.838;9.330;2022-07-30T12:57:50;98462.84;;;29.07;33.16
55604;BME280;41468;48.838;9.330;2022-07-30T13:00:24;98456.88;;;29.00;32.68
55604;BME280;41468;48.838;9.330;2022-07-30T13:02:54;98456.22;;;28.84;33.21
55604;BME280;41468;48.838;9.330;2022-07-30T13:05:45;98451.88;;;28.83;32.59
55604;BME280;41468;48.838;9.330;2022-07-30T13:08:16;98460.06;;;28.87;32.00
55604;BME280;41468;48.838;9.330;2022-07-30T13:10:56;98456.09;;;28.73;32.64
55604;BME280;41468;48.838;9.330;2022-07-30T13:13:27;98446.19;;;28.78;32.56
55604;BME280;41468;48.838;9.330;2022-07-30T13:16:03;98443.28;;;28.51;32.79
55604;BME280;41468;48.838;9.330;2022-07-30T13:18:34;98452.59;;;28.17;33.60
55604;BME280;41468;48.838;9.330;2022-07-30T13:21:05;98442.56;;;27.95;34.20
55604;BME280;41468;48.838;9.330;2022-07-30T13:23:38;98439.16;;;27.71;34.27
55604;BME280;41468;48.838;9.330;2022-07-30T13:26:09;98434.66;;;27.79;34.15
55604;BME280;41468;48.838;9.330;2022-07-30T13:28:39;98434.97;;;27.81;33.97
55604;BME280;41468;48.838;9.330;2022-07-30T13:31:14;98425.53;;;27.84;34.17
55604;BME280;41468;48.838;9.330;2022-07-30T13:33:44;98426.91;;;27.89;33.74